Terminal Aerodrome Forecast
Issued by NWS

Home | Current Version | Previous Version | Text Only | Print | Product List | Glossary On
Versions: 1 2 3 4 5 6 7 8 9 10 11 12 13 14 15 16 17
760
FTUS44 KOHX 261739
TAFCKV
TAF
KCKV 261739Z 2618/2718 20003KT P6SM SCT040 BKN070
     FM270200 20003KT P6SM SKC
     FM271500 23007KT P6SM SCT040 BKN250=

USA.gov is the U.S. government's official web portal to all federal, state and local government web resources and services.